createdAt,value
2022-10-11T00:01:04.829Z,8.14
2022-10-11T00:04:06.449Z,8.15
2022-10-11T00:07:08.007Z,8.14
2022-10-11T00:10:09.853Z,8.14
2022-10-11T00:13:11.442Z,8.11
2022-10-11T00:16:14.261Z,8.16
2022-10-11T00:19:15.961Z,8.26
2022-10-11T00:22:17.541Z,8.41
2022-10-11T00:25:19.155Z,8.44
2022-10-11T00:28:20.773Z,8.43
2022-10-11T00:31:22.424Z,8.27
2022-10-11T00:34:24.078Z,8.17
2022-10-11T00:37:25.651Z,8.04
2022-10-11T00:40:27.191Z,7.98
2022-10-11T00:43:29.491Z,7.98
2022-10-11T00:46:31.374Z,7.97
2022-10-11T00:49:37.172Z,7.94
2022-10-11T00:52:40.442Z,7.91
2022-10-11T00:55:44.408Z,7.78
2022-10-11T00:58:45.966Z,7.65
2022-10-11T01:01:47.599Z,7.60
2022-10-11T01:05:01.016Z,7.53
2022-10-11T01:08:11.221Z,7.47
2022-10-11T01:11:13.582Z,7.44
2022-10-11T01:14:26.248Z,7.41
2022-10-11T01:17:27.775Z,7.36
2022-10-11T01:20:35.254Z,7.31
2022-10-11T01:23:43.001Z,7.26
2022-10-11T01:26:57.113Z,7.19
2022-10-11T01:30:14.114Z,7.03
2022-10-11T01:33:18.882Z,6.82
2022-10-11T01:36:41.749Z,6.71
2022-10-11T01:39:47.328Z,6.68
2022-10-11T01:42:48.843Z,6.61
2022-10-11T01:45:51.149Z,6.55
2022-10-11T01:48:57.269Z,6.60
2022-10-11T01:52:00.061Z,6.58
2022-10-11T01:55:37.251Z,6.53
2022-10-11T01:58:59.265Z,6.49
2022-10-11T02:02:20.565Z,6.54
2022-10-11T02:05:40.614Z,6.61
2022-10-11T02:08:53.912Z,6.67
2022-10-11T02:11:56.469Z,6.70
2022-10-11T02:14:58.138Z,6.66
2022-10-11T02:18:01.118Z,6.62
2022-10-11T02:21:04.018Z,6.58
2022-10-11T02:24:10.107Z,6.52
2022-10-11T02:27:11.910Z,6.46
2022-10-11T02:30:13.614Z,6.42
2022-10-11T02:33:15.936Z,6.35
2022-10-11T02:36:21.914Z,6.27
2022-10-11T02:39:29.370Z,6.18
2022-10-11T02:42:33.974Z,6.16
2022-10-11T02:45:36.470Z,6.28
2022-10-11T02:48:38.037Z,6.38
2022-10-11T02:51:39.653Z,6.57
2022-10-11T02:54:41.185Z,6.59
2022-10-11T02:57:42.782Z,6.70
2022-10-11T03:00:44.348Z,6.71
2022-10-11T03:03:45.956Z,6.71
2022-10-11T03:06:47.477Z,6.73
2022-10-11T03:09:49.045Z,6.75
2022-10-11T03:12:50.646Z,6.75
2022-10-11T03:16:07.189Z,6.68
2022-10-11T03:19:08.852Z,6.64
2022-10-11T03:22:10.378Z,6.64
2022-10-11T03:25:12.060Z,6.44
2022-10-11T03:28:13.704Z,6.26
2022-10-11T03:31:15.337Z,6.24
2022-10-11T03:34:16.893Z,6.26
2022-10-11T03:37:18.930Z,6.34
2022-10-11T03:40:20.567Z,6.20
2022-10-11T03:43:22.174Z,6.07
2022-10-11T03:46:23.750Z,6.05
2022-10-11T03:49:25.322Z,6.04
2022-10-11T03:52:26.846Z,6.05
2022-10-11T03:55:28.390Z,6.05
2022-10-11T03:58:29.917Z,6.04
2022-10-11T04:01:31.530Z,6.01
2022-10-11T04:04:33.198Z,5.95
2022-10-11T04:07:34.785Z,5.98
2022-10-11T04:10:36.609Z,5.99
2022-10-11T04:13:38.224Z,5.98
2022-10-11T04:16:40.208Z,5.97
2022-10-11T04:19:42.046Z,5.86
2022-10-11T04:22:43.604Z,5.77
2022-10-11T04:25:45.581Z,5.79
2022-10-11T04:28:47.199Z,5.74
2022-10-11T04:31:48.965Z,5.68
2022-10-11T04:34:51.348Z,5.62
2022-10-11T04:37:52.907Z,5.63
2022-10-11T04:40:54.477Z,5.54
2022-10-11T04:43:56.184Z,5.63
2022-10-11T04:46:57.818Z,5.70
2022-10-11T04:49:59.346Z,5.80
2022-10-11T04:53:00.918Z,5.91
2022-10-11T04:56:06.253Z,6.03
2022-10-11T04:59:07.962Z,6.07
2022-10-11T05:02:09.572Z,6.05
2022-10-11T05:05:11.395Z,6.04
2022-10-11T05:08:13.046Z,6.12
2022-10-11T05:11:16.253Z,6.21
2022-10-11T05:14:17.935Z,6.21
2022-10-11T05:17:19.540Z,6.19
2022-10-11T05:20:21.075Z,6.21
2022-10-11T05:23:22.588Z,6.20
2022-10-11T05:26:24.754Z,6.27
2022-10-11T05:29:26.483Z,6.35
2022-10-11T05:32:28.273Z,6.42
2022-10-11T05:35:29.890Z,6.38
2022-10-11T05:38:31.489Z,6.34
2022-10-11T05:41:33.078Z,6.31
2022-10-11T05:44:34.621Z,6.32
2022-10-11T05:47:36.129Z,6.28
2022-10-11T05:50:38.058Z,6.34
2022-10-11T05:53:39.639Z,6.33
2022-10-11T05:56:41.157Z,6.31
2022-10-11T05:59:42.765Z,6.29
2022-10-11T06:02:44.275Z,6.28
2022-10-11T06:05:45.774Z,6.20
2022-10-11T06:08:47.501Z,6.13
2022-10-11T06:11:48.989Z,6.05
2022-10-11T06:14:50.500Z,5.95
2022-10-11T06:17:52.908Z,5.82
2022-10-11T06:20:54.487Z,5.81
2022-10-11T06:24:01.130Z,5.83
2022-10-11T06:27:03.464Z,5.88
2022-10-11T06:30:05.524Z,6.04
2022-10-11T06:33:07.030Z,6.02
2022-10-11T06:36:10.486Z,5.96
2022-10-11T06:39:12.547Z,5.93
2022-10-11T06:42:14.159Z,5.90
2022-10-11T06:45:16.077Z,5.81
2022-10-11T06:48:17.682Z,5.65
2022-10-11T06:51:20.773Z,5.60
2022-10-11T06:54:22.312Z,5.64
2022-10-11T06:57:23.876Z,5.65
2022-10-11T07:00:25.402Z,5.68
2022-10-11T07:03:26.909Z,5.70
2022-10-11T07:06:28.884Z,5.77
2022-10-11T07:09:30.966Z,5.87
2022-10-11T07:12:32.619Z,5.93
2022-10-11T07:15:38.111Z,5.85
2022-10-11T07:18:40.070Z,5.79
2022-10-11T07:21:41.785Z,6.07
2022-10-11T07:24:43.421Z,6.35
2022-10-11T07:27:45.010Z,6.48
2022-10-11T07:30:46.593Z,6.50
2022-10-11T07:33:48.170Z,6.46
2022-10-11T07:36:49.778Z,6.48
2022-10-11T07:39:51.334Z,6.53
2022-10-11T07:42:52.929Z,6.70
2022-10-11T07:45:55.619Z,6.91
2022-10-11T07:48:57.350Z,7.25
2022-10-11T07:51:58.900Z,7.36
2022-10-11T07:55:00.518Z,7.31
2022-10-11T07:58:02.046Z,7.22
2022-10-11T08:01:03.729Z,7.13
2022-10-11T08:04:05.489Z,7.17
2022-10-11T08:07:07.088Z,7.24
2022-10-11T08:10:08.940Z,7.35
2022-10-11T08:13:10.514Z,7.48
2022-10-11T08:16:12.345Z,7.62
2022-10-11T08:19:13.946Z,7.70
2022-10-11T08:22:15.515Z,7.75
2022-10-11T08:25:17.164Z,7.87
2022-10-11T08:28:18.879Z,7.98
2022-10-11T08:31:20.654Z,8.02
2022-10-11T08:34:22.263Z,8.09
2022-10-11T08:37:23.848Z,8.17
2022-10-11T08:40:26.348Z,8.35
2022-10-11T08:43:46.755Z,8.52
2022-10-11T08:46:53.947Z,8.66
2022-10-11T08:49:58.905Z,8.68
2022-10-11T08:53:08.127Z,8.79
2022-10-11T08:56:10.621Z,8.95
2022-10-11T08:59:12.139Z,9.13
2022-10-11T09:02:55.605Z,9.32
2022-10-11T09:06:14.075Z,9.51
2022-10-11T09:09:34.166Z,9.56
2022-10-11T09:12:50.903Z,9.74
2022-10-11T09:15:56.994Z,9.87
2022-10-11T09:19:17.356Z,10.00
2022-10-11T09:22:48.028Z,10.12
2022-10-11T09:25:51.429Z,10.29
2022-10-11T09:29:01.134Z,10.17
2022-10-11T09:32:03.164Z,10.16
2022-10-11T09:35:12.269Z,10.14
2022-10-11T09:38:49.393Z,10.26
2022-10-11T09:42:05.434Z,10.41
2022-10-11T09:45:13.298Z,10.48
2022-10-11T09:48:19.495Z,10.63
2022-10-11T09:51:21.866Z,10.81
2022-10-11T09:54:37.084Z,11.09
2022-10-11T09:57:39.349Z,11.19
2022-10-11T10:00:40.931Z,11.26
2022-10-11T10:03:43.225Z,11.19
2022-10-11T10:06:44.933Z,11.25
2022-10-11T10:09:46.665Z,11.27
2022-10-11T10:12:53.157Z,11.29
2022-10-11T10:15:55.492Z,11.26
2022-10-11T10:18:58.444Z,11.37
2022-10-11T10:22:00.015Z,11.38
2022-10-11T10:25:02.508Z,11.47
2022-10-11T10:28:05.274Z,11.58
2022-10-11T10:31:11.269Z,11.55
2022-10-11T10:34:14.529Z,11.59
2022-10-11T10:37:18.696Z,11.75
2022-10-11T10:40:25.339Z,12.03
2022-10-11T10:43:28.149Z,11.87
2022-10-11T10:46:47.760Z,11.77
2022-10-11T10:49:55.430Z,11.64
2022-10-11T10:52:57.067Z,11.75
2022-10-11T10:56:05.365Z,11.98
2022-10-11T10:59:07.016Z,11.80
2022-10-11T11:02:38.616Z,12.06
2022-10-11T11:05:41.515Z,12.87
2022-10-11T11:08:52.354Z,12.75
2022-10-11T11:12:11.017Z,12.21
2022-10-11T11:15:19.848Z,11.81
2022-10-11T11:18:22.038Z,11.70
2022-10-11T11:21:41.494Z,11.97
2022-10-11T11:24:55.302Z,12.16
2022-10-11T11:28:17.580Z,12.65
2022-10-11T11:31:28.326Z,13.73
2022-10-11T11:34:33.037Z,13.52
2022-10-11T11:37:35.374Z,12.90
2022-10-11T11:40:38.473Z,12.31
2022-10-11T11:43:43.209Z,12.33
2022-10-11T11:46:46.551Z,12.07
2022-10-11T11:49:50.259Z,11.93
2022-10-11T11:52:53.180Z,11.81
2022-10-11T11:56:03.131Z,11.88
2022-10-11T11:59:20.595Z,12.09
2022-10-11T12:02:32.178Z,12.22
2022-10-11T12:05:34.246Z,12.21
2022-10-11T12:08:35.777Z,12.07
2022-10-11T12:11:37.292Z,12.26
2022-10-11T12:14:39.678Z,12.09
2022-10-11T12:17:53.534Z,12.13
2022-10-11T12:21:21.235Z,13.09
2022-10-11T12:24:23.888Z,12.88
2022-10-11T12:27:43.815Z,12.58
2022-10-11T12:30:48.361Z,12.14
2022-10-11T12:33:54.387Z,12.02
2022-10-11T12:36:56.110Z,12.04
2022-10-11T12:39:58.633Z,11.83
2022-10-11T12:43:11.262Z,11.90
2022-10-11T12:46:28.635Z,11.83
2022-10-11T12:49:51.053Z,11.87
2022-10-11T12:52:55.705Z,11.91
2022-10-11T12:55:57.268Z,11.86
2022-10-11T12:59:03.286Z,11.58
2022-10-11T13:02:16.659Z,11.28
2022-10-11T13:05:24.283Z,11.27
2022-10-11T13:08:25.857Z,11.26
2022-10-11T13:11:31.582Z,11.21
2022-10-11T13:14:46.360Z,11.04
2022-10-11T13:17:54.251Z,10.90
2022-10-11T13:20:55.858Z,10.92
2022-10-11T13:24:01.860Z,10.94
2022-10-11T13:27:03.616Z,10.90
2022-10-11T13:30:06.582Z,10.84
2022-10-11T13:33:11.255Z,11.15
2022-10-11T13:36:14.560Z,11.17
2022-10-11T13:39:35.594Z,11.16
2022-10-11T13:42:37.121Z,11.06
2022-10-11T13:45:39.279Z,11.02
2022-10-11T13:48:41.198Z,11.08
2022-10-11T13:51:42.715Z,11.23
2022-10-11T13:54:53.448Z,11.19
2022-10-11T13:57:55.110Z,11.12
2022-10-11T14:00:58.056Z,11.22
2022-10-11T14:04:00.338Z,11.08
2022-10-11T14:07:02.651Z,11.10
2022-10-11T14:10:05.408Z,10.94
2022-10-11T14:13:16.914Z,10.85
2022-10-11T14:16:18.653Z,10.82
2022-10-11T14:19:20.218Z,10.86
2022-10-11T14:22:21.808Z,10.85
2022-10-11T14:25:23.379Z,10.87
2022-10-11T14:28:25.007Z,10.85
2022-10-11T14:31:26.755Z,10.88
2022-10-11T14:34:28.391Z,10.84
2022-10-11T14:37:29.927Z,10.91
2022-10-11T14:40:31.924Z,10.93
2022-10-11T14:43:33.558Z,11.04
2022-10-11T14:46:39.009Z,11.12
2022-10-11T14:49:40.701Z,11.09
2022-10-11T14:52:42.313Z,11.06
2022-10-11T14:55:43.871Z,10.92
2022-10-11T14:58:45.421Z,10.85
2022-10-11T15:01:51.684Z,10.77
2022-10-11T15:04:53.698Z,10.78
2022-10-11T15:07:55.461Z,10.79
2022-10-11T15:10:57.195Z,10.82
2022-10-11T15:13:58.788Z,10.91
2022-10-11T15:17:00.339Z,11.00
2022-10-11T15:20:02.036Z,10.99
2022-10-11T15:23:04.532Z,10.96
2022-10-11T15:26:06.450Z,10.93
2022-10-11T15:29:10.537Z,10.92
2022-10-11T15:32:12.150Z,10.84
2022-10-11T15:35:14.038Z,10.73
2022-10-11T15:38:17.230Z,10.65
2022-10-11T15:41:19.966Z,10.57
2022-10-11T15:44:21.554Z,10.61
2022-10-11T15:47:23.131Z,10.59
2022-10-11T15:50:35.004Z,10.58
2022-10-11T15:53:36.604Z,10.54
2022-10-11T15:56:38.429Z,10.50
2022-10-11T15:59:40.221Z,10.45
2022-10-11T16:02:42.425Z,10.45
2022-10-11T16:05:44.176Z,10.44
2022-10-11T16:08:45.705Z,10.43
2022-10-11T16:11:47.238Z,10.37
2022-10-11T16:14:48.717Z,10.32
2022-10-11T16:17:50.248Z,10.31
2022-10-11T16:20:52.457Z,10.24
2022-10-11T16:23:53.965Z,10.18
2022-10-11T16:26:55.462Z,10.13
2022-10-11T16:29:57.304Z,10.13
2022-10-11T16:32:58.846Z,10.08
2022-10-11T16:36:20.709Z,10.02
2022-10-11T16:39:22.334Z,10.03
2022-10-11T16:42:23.847Z,10.04
2022-10-11T16:45:25.338Z,9.98
2022-10-11T16:48:26.852Z,9.95
2022-10-11T16:51:28.466Z,9.92
2022-10-11T16:54:30.549Z,9.89
2022-10-11T16:57:32.116Z,9.91
2022-10-11T17:00:33.706Z,9.89
2022-10-11T17:03:35.278Z,9.87
2022-10-11T17:06:36.908Z,9.86
2022-10-11T17:09:44.548Z,9.88
2022-10-11T17:12:50.031Z,9.85
2022-10-11T17:15:52.523Z,9.86
2022-10-11T17:18:54.302Z,9.87
2022-10-11T17:21:56.118Z,9.83
2022-10-11T17:24:57.851Z,9.86
2022-10-11T17:27:59.353Z,9.81
2022-10-11T17:31:01.128Z,9.75
2022-10-11T17:34:02.637Z,9.78
2022-10-11T17:37:04.166Z,9.75
2022-10-11T17:40:06.300Z,9.70
2022-10-11T17:43:07.812Z,9.65
2022-10-11T17:46:11.771Z,9.57
2022-10-11T17:49:13.506Z,9.52
2022-10-11T17:52:15.051Z,9.48
2022-10-11T17:55:16.666Z,9.43
2022-10-11T17:58:18.286Z,9.37
2022-10-11T18:01:21.359Z,9.36
2022-10-11T18:04:26.650Z,9.34
2022-10-11T18:07:28.249Z,9.39
2022-10-11T18:10:29.841Z,9.42
2022-10-11T18:13:31.397Z,9.52
2022-10-11T18:16:33.132Z,9.52
2022-10-11T18:19:34.857Z,9.42
2022-10-11T18:22:36.653Z,9.29
2022-10-11T18:25:38.441Z,9.15
2022-10-11T18:28:40.878Z,9.05
2022-10-11T18:31:42.630Z,8.99
2022-10-11T18:34:44.329Z,8.91
2022-10-11T18:37:45.978Z,8.88
2022-10-11T18:40:47.678Z,8.83
2022-10-11T18:43:50.118Z,8.86
2022-10-11T18:46:51.838Z,8.85
2022-10-11T18:49:53.443Z,8.79
2022-10-11T18:52:55.013Z,8.72
2022-10-11T18:56:00.391Z,8.68
2022-10-11T18:59:01.943Z,8.61
2022-10-11T19:02:04.909Z,8.50
2022-10-11T19:05:06.615Z,8.44
2022-10-11T19:08:08.286Z,8.37
2022-10-11T19:11:10.354Z,8.30
2022-10-11T19:14:14.670Z,8.19
2022-10-11T19:17:16.310Z,8.17
2022-10-11T19:20:17.879Z,8.15
2022-10-11T19:23:20.606Z,8.07
2022-10-11T19:26:22.304Z,8.06
2022-10-11T19:29:25.462Z,8.04
2022-10-11T19:32:27.029Z,7.97
2022-10-11T19:35:29.611Z,7.86
2022-10-11T19:38:31.837Z,7.76
2022-10-11T19:41:33.542Z,7.70
2022-10-11T19:44:38.705Z,7.60
2022-10-11T19:47:41.411Z,7.54
2022-10-11T19:50:42.974Z,7.47
2022-10-11T19:53:44.517Z,7.42
2022-10-11T19:56:46.160Z,7.37
2022-10-11T19:59:47.745Z,7.32
2022-10-11T20:02:49.341Z,7.25
2022-10-11T20:05:50.898Z,7.13
2022-10-11T20:09:10.387Z,7.06
2022-10-11T20:12:14.411Z,7.00
2022-10-11T20:15:16.035Z,6.98
2022-10-11T20:18:17.600Z,6.98
2022-10-11T20:21:21.685Z,7.00
2022-10-11T20:24:23.269Z,7.01
2022-10-11T20:27:24.843Z,7.01
2022-10-11T20:30:26.393Z,7.02
2022-10-11T20:33:31.898Z,7.05
2022-10-11T20:36:33.795Z,7.06
2022-10-11T20:39:35.346Z,7.07
2022-10-11T20:42:37.317Z,7.08
2022-10-11T20:45:38.881Z,7.09
2022-10-11T20:48:40.739Z,7.09
2022-10-11T20:51:42.437Z,7.05
2022-10-11T20:54:44.007Z,7.04
2022-10-11T20:57:45.589Z,7.03
2022-10-11T21:00:47.593Z,7.06
2022-10-11T21:03:49.193Z,7.12
2022-10-11T21:06:50.744Z,7.20
2022-10-11T21:09:52.446Z,7.23
2022-10-11T21:12:55.018Z,7.29
2022-10-11T21:15:56.687Z,7.32
2022-10-11T21:18:58.648Z,7.28
2022-10-11T21:22:00.358Z,7.27
2022-10-11T21:25:01.886Z,7.25
2022-10-11T21:28:04.016Z,7.23
2022-10-11T21:31:05.644Z,7.26
2022-10-11T21:34:07.535Z,7.29
2022-10-11T21:37:09.077Z,7.34
2022-10-11T21:40:10.700Z,7.38
2022-10-11T21:43:12.245Z,7.40
2022-10-11T21:46:16.906Z,7.41
2022-10-11T21:49:18.640Z,7.41
2022-10-11T21:52:20.306Z,7.48
2022-10-11T21:55:21.869Z,7.55
2022-10-11T21:58:23.474Z,7.65
2022-10-11T22:01:25.286Z,7.69
2022-10-11T22:04:26.899Z,7.70
2022-10-11T22:07:28.478Z,7.70
2022-10-11T22:10:30.109Z,7.73
2022-10-11T22:13:32.782Z,7.75
2022-10-11T22:16:34.410Z,7.80
2022-10-11T22:19:35.951Z,7.80
2022-10-11T22:22:37.887Z,7.80
2022-10-11T22:25:39.758Z,7.80
2022-10-11T22:28:41.733Z,7.73
2022-10-11T22:31:43.536Z,7.71
2022-10-11T22:34:45.104Z,7.72
2022-10-11T22:37:46.739Z,7.77
2022-10-11T22:40:48.590Z,7.82
2022-10-11T22:43:50.138Z,7.88
2022-10-11T22:46:51.790Z,7.93
2022-10-11T22:49:53.352Z,7.98
2022-10-11T22:52:54.910Z,8.00
2022-10-11T22:55:56.532Z,8.10
2022-10-11T22:58:58.454Z,8.15
2022-10-11T23:02:00.006Z,8.20
2022-10-11T23:05:01.631Z,8.22
2022-10-11T23:08:03.206Z,8.26
2022-10-11T23:11:05.717Z,8.23
2022-10-11T23:14:07.293Z,8.18
2022-10-11T23:17:08.914Z,8.10
2022-10-11T23:20:10.772Z,8.06
2022-10-11T23:23:12.506Z,8.02
2022-10-11T23:26:15.375Z,7.98
2022-10-11T23:29:16.954Z,7.94
2022-10-11T23:32:18.500Z,8.00
2022-10-11T23:35:20.059Z,8.04
2022-10-11T23:38:21.621Z,8.03
2022-10-11T23:41:23.728Z,7.95
2022-10-11T23:44:25.314Z,7.85
2022-10-11T23:47:26.958Z,7.86
2022-10-11T23:50:28.501Z,7.76
2022-10-11T23:53:30.049Z,7.76
2022-10-11T23:56:31.665Z,7.85
2022-10-11T23:59:33.358Z,7.87
